Terminal Aerodrome Forecast
Issued by NWS

Home | Current Version | Previous Version | Graphics & Text | Print | Product List | Glossary On
Versions: 1 2 3 4 5 6 7 8 9 10 11 12 13 14 15 16 17 18
000
FTUS43 KBIS 301328 AAA
TAFMOT
TAF AMD
KMOT 301328Z 3013/3112 17012KT P6SM BKN250
     FM301900 18015G23KT P6SM SCT250
     FM310300 VRB05KT P6SM VCSH SCT080 BKN120 OVC250
     FM310900 28008KT P6SM VCSH SCT040 BKN080 OVC120=

USA.gov is the U.S. government's official web portal to all federal, state and local government web resources and services.